Aeroporto :
LOGIN :

Iscrizione | Disclaimer

   EN    FR    IT 

 










Sommario :    VFR   VFR Marginale   IFR   IFR Intensivo   IFR Molto Intensivo
Visibilità : 
Base nubi : 
>= 8 km
>= 3000ft
5 / 8 km
1000 / 3000 ft
1500m / 5 km
500 / 1000 ft
800 / 1500m
200 / 500 ft
< 800m
< 200 ft
Simboli :   Temporali  Nebbia  Neve Forte  Precipitazioni Forti  Vento > 20 kt
SIGMETs :   Varie  Temporali  Ghiacco  Turbolenza  Onda orograficha  Ceneri Vulcaniche







- Altitudine del aeroporto : 120 ft
- Codice IATA : MME
- Carte del aeroporto


EGNV - Durham Tees valley

ULTIMO METAR :
  • 181750Z 04009KT 8000 FEW015 04/03 Q1032

METARs OBSOLETI :
  • 181720Z 35004KT 330V030 8000 FEW015 06/05 Q1032
  • 181650Z 01005KT 320V040 6000 FEW015 07/06 Q1032
  • 181620Z 06007KT 6000 FEW015 07/05 Q1032
  • 181550Z 06005KT 020V110 6000 FEW015 08/05 Q1032
  • 181520Z 06006KT 9999 FEW015 08/06 Q1032

TAF TAF EGNV
Valido dal 18 a 18 ore il 18 a 22 ore UTC


181708Z 1818/1822 05004KT 6000 FEW025
TEMPO 1818/1822 3000 BR
ATIS : +44 9012 018 111
Nessun NOTAM noto per questo aeroporto.



MetMap, La meteo Aeronautica in un colpo d'occhio ! - Copyright ORBIFLY Dicembre 2007 - Disclaimer

ORBIFLY MET'MAP TEAM :

Programmazione e sviluppo : Alexandra Zaïnal
Concezione e sviluppo : Baudouin d'Aumeries
Co-Programmazione e sviluppo : Marc-Olivier Méhu
Supporto tecnico e logistico : Manuel Goepfert
Aiuto per la traduzione : Arnaldo La Scala

Contatto : metmap@orbifly.com




FONTI E CREDITI :

   NOAA